PWSweather.com
Personal Weather Stations
Station Observations
KCTHAMDEN
Dunbar Hill, Hamden, CT 06514

Dunbar HillHamden, CT 06514

Lat: 41.365437, Lon: -72.956532

Elevation: 200

Station Type: Davis Vantage Pro2+

www.hamdenweather.com

High Low Average
Temperature 88.6°F31.4°C 69.3°F20.7°C 78.1°F25.6°C
Dew Point 77.6°F25.3°C 67.8°F19.9°C 71.9°F22.2°C
Winds 2.1 mph 3.4 kmh Calm Calm Calm SCalm S
Wind Gusts 4.0 mph6.4 kmh -- 1.0 mph1.6 kmh
Humidity 96% 57% 83%
Pressure 30.09 in1019.0 mb 30.02 in1016.6 mb -
Precipitation 0.00 in0.0 mm - -
Hour Temp Dew Point Humidity Winds Wind Gusts Pressure Precip Precip Rate Daily Precip Total
12:00 AM 70.1°F21.2°C 68.6°F20.3°C 95% 0.1 mph N0.2 kmh N -- 30.05 in1017.6 mb - 0.00 in0.0 mm 0.00 in0.0 mm
12:15 AM 70.0°F21.1°C 68.5°F20.3°C 95% Calm Calm -- 30.05 in1017.6 mb - 0.00 in0.0 mm 0.00 in0.0 mm
12:30 AM 70.3°F21.3°C 69.1°F20.6°C 96% 1.0 mph SW1.6 kmh SW -- 30.05 in1017.6 mb - 0.00 in0.0 mm 0.00 in0.0 mm
12:45 AM 70.4°F21.3°C 69.2°F20.7°C 96% Calm Calm -- 30.05 in1017.6 mb - 0.00 in0.0 mm 0.00 in0.0 mm
01:00 AM 70.3°F21.3°C 68.8°F20.4°C 95% Calm Calm -- 30.04 in1017.3 mb - 0.00 in0.0 mm 0.00 in0.0 mm
01:15 AM 70.2°F21.2°C 68.7°F20.4°C 95% Calm Calm -- 30.03 in1016.9 mb - 0.00 in0.0 mm 0.00 in0.0 mm
01:30 AM 70.0°F21.1°C 68.5°F20.3°C 95% Calm Calm -- 30.03 in1016.9 mb - 0.00 in0.0 mm 0.00 in0.0 mm
01:45 AM 69.8°F21.0°C 68.3°F20.2°C 95% Calm Calm -- 30.02 in1016.6 mb - 0.00 in0.0 mm 0.00 in0.0 mm
02:00 AM 69.7°F20.9°C 68.2°F20.1°C 95% Calm Calm -- 30.02 in1016.6 mb - 0.00 in0.0 mm 0.00 in0.0 mm
02:15 AM 69.6°F20.9°C 68.1°F20.1°C 95% Calm Calm -- 30.02 in1016.6 mb - 0.00 in0.0 mm 0.00 in0.0 mm
02:30 AM 69.4°F20.8°C 68.0°F20.0°C 95% 0.1 mph SSW0.2 kmh SSW -- 30.02 in1016.6 mb - 0.00 in0.0 mm 0.00 in0.0 mm
02:45 AM 69.3°F20.7°C 67.8°F19.9°C 95% 0.5 mph S0.8 kmh S -- 30.02 in1016.6 mb - 0.00 in0.0 mm 0.00 in0.0 mm
03:00 AM 69.3°F20.7°C 67.8°F19.9°C 95% Calm Calm -- 30.02 in1016.6 mb - 0.00 in0.0 mm 0.00 in0.0 mm
03:15 AM 69.4°F20.8°C 67.9°F19.9°C 95% Calm Calm -- 30.03 in1016.9 mb - 0.00 in0.0 mm 0.00 in0.0 mm
03:30 AM 69.4°F20.8°C 67.9°F19.9°C 95% 0.4 mph S0.6 kmh S -- 30.02 in1016.6 mb - 0.00 in0.0 mm 0.00 in0.0 mm
03:45 AM 69.5°F20.8°C 68.0°F20.0°C 95% 0.3 mph S0.5 kmh S 2.0 mph3.2 kmh 30.02 in1016.6 mb - 0.00 in0.0 mm 0.00 in0.0 mm
04:00 AM 69.5°F20.8°C 68.3°F20.2°C 96% Calm Calm -- 30.03 in1016.9 mb - 0.00 in0.0 mm 0.00 in0.0 mm
04:15 AM 69.6°F20.9°C 68.1°F20.1°C 95% 0.5 mph SE0.8 kmh SE 2.0 mph3.2 kmh 30.03 in1016.9 mb - 0.00 in0.0 mm 0.00 in0.0 mm
04:30 AM 69.6°F20.9°C 68.1°F20.1°C 95% 0.1 mph E0.2 kmh E 1.0 mph1.6 kmh 30.04 in1017.3 mb - 0.00 in0.0 mm 0.00 in0.0 mm
04:45 AM 69.5°F20.8°C 68.0°F20.0°C 95% Calm Calm -- 30.04 in1017.3 mb - 0.00 in0.0 mm 0.00 in0.0 mm
05:00 AM 69.3°F20.7°C 67.8°F19.9°C 95% Calm Calm -- 30.04 in1017.3 mb - 0.00 in0.0 mm 0.00 in0.0 mm
05:15 AM 69.4°F20.8°C 67.9°F19.9°C 95% Calm Calm -- 30.05 in1017.6 mb - 0.00 in0.0 mm 0.00 in0.0 mm
05:30 AM 69.4°F20.8°C 67.9°F19.9°C 95% Calm Calm -- 30.05 in1017.6 mb - 0.00 in0.0 mm 0.00 in0.0 mm
05:45 AM 69.4°F20.8°C 67.9°F19.9°C 95% 0.3 mph SW0.5 kmh SW 1.0 mph1.6 kmh 30.05 in1017.6 mb - 0.00 in0.0 mm 0.00 in0.0 mm
06:00 AM 69.4°F20.8°C 67.9°F19.9°C 95% Calm Calm -- 30.06 in1017.9 mb - 0.00 in0.0 mm 0.00 in0.0 mm
06:15 AM 69.7°F20.9°C 68.5°F20.3°C 96% 0.2 mph SW0.3 kmh SW 2.0 mph3.2 kmh 30.07 in1018.3 mb - 0.00 in0.0 mm 0.00 in0.0 mm
06:30 AM 70.4°F21.3°C 69.2°F20.7°C 96% 0.6 mph WSW1.0 kmh WSW 1.0 mph1.6 kmh 30.07 in1018.3 mb - 0.00 in0.0 mm 0.00 in0.0 mm
06:45 AM 71.5°F21.9°C 70.3°F21.3°C 96% Calm Calm 1.0 mph1.6 kmh 30.07 in1018.3 mb - 0.00 in0.0 mm 0.00 in0.0 mm
07:00 AM 72.7°F22.6°C 71.2°F21.8°C 95% Calm Calm -- 30.08 in1018.6 mb - 0.00 in0.0 mm 0.00 in0.0 mm
07:15 AM 73.9°F23.3°C 71.4°F21.9°C 92% Calm Calm -- 30.07 in1018.3 mb - 0.00 in0.0 mm 0.00 in0.0 mm
07:30 AM 75.5°F24.2°C 72.0°F22.2°C 89% Calm Calm -- 30.07 in1018.3 mb - 0.00 in0.0 mm 0.00 in0.0 mm
07:45 AM 76.8°F24.9°C 72.6°F22.6°C 87% 0.7 mph NE1.1 kmh NE 2.0 mph3.2 kmh 30.07 in1018.3 mb - 0.00 in0.0 mm 0.00 in0.0 mm
08:00 AM 77.8°F25.4°C 72.6°F22.6°C 84% 0.2 mph NE0.3 kmh NE 1.0 mph1.6 kmh 30.08 in1018.6 mb - 0.00 in0.0 mm 0.00 in0.0 mm
08:15 AM 78.5°F25.8°C 73.6°F23.1°C 85% 0.1 mph NE0.2 kmh NE 1.0 mph1.6 kmh 30.08 in1018.6 mb - 0.00 in0.0 mm 0.00 in0.0 mm
08:30 AM 79.6°F26.4°C 72.5°F22.5°C 79% 0.2 mph SW0.3 kmh SW 1.0 mph1.6 kmh 30.09 in1019.0 mb - 0.00 in0.0 mm 0.00 in0.0 mm
08:45 AM 80.9°F27.2°C 73.7°F23.2°C 79% 0.7 mph SSW1.1 kmh SSW 2.0 mph3.2 kmh 30.08 in1018.6 mb - 0.00 in0.0 mm 0.00 in0.0 mm
09:00 AM 82.2°F27.9°C 73.1°F22.8°C 74% 2.1 mph SSW3.4 kmh SSW 4.0 mph6.4 kmh 30.09 in1019.0 mb - 0.00 in0.0 mm 0.00 in0.0 mm
09:15 AM 83.4°F28.6°C 73.0°F22.8°C 71% 0.6 mph S1.0 kmh S 1.0 mph1.6 kmh 30.09 in1019.0 mb - 0.00 in0.0 mm 0.00 in0.0 mm
09:30 AM 84.2°F29.0°C 73.8°F23.2°C 71% 1.0 mph NE1.6 kmh NE 1.0 mph1.6 kmh 30.09 in1019.0 mb - 0.00 in0.0 mm 0.00 in0.0 mm
09:45 AM 84.2°F29.0°C 73.4°F23.0°C 70% 1.3 mph NNE2.1 kmh NNE 3.0 mph4.8 kmh 30.09 in1019.0 mb - 0.00 in0.0 mm 0.00 in0.0 mm
10:00 AM 85.0°F29.4°C 74.1°F23.4°C 70% 0.4 mph W0.6 kmh W 2.0 mph3.2 kmh 30.09 in1019.0 mb - 0.00 in0.0 mm 0.00 in0.0 mm
10:15 AM 85.4°F29.7°C 73.6°F23.1°C 68% 1.6 mph SSE2.6 kmh SSE 3.0 mph4.8 kmh 30.09 in1019.0 mb - 0.00 in0.0 mm 0.00 in0.0 mm
10:30 AM 85.8°F29.9°C 74.4°F23.6°C 69% 0.6 mph SSW1.0 kmh SSW 2.0 mph3.2 kmh 30.09 in1019.0 mb - 0.00 in0.0 mm 0.00 in0.0 mm
10:45 AM 86.5°F30.3°C 73.3°F22.9°C 65% 1.6 mph SW2.6 kmh SW 4.0 mph6.4 kmh 30.08 in1018.6 mb - 0.00 in0.0 mm 0.00 in0.0 mm
11:00 AM 86.6°F30.3°C 73.0°F22.8°C 64% 0.6 mph E1.0 kmh E 2.0 mph3.2 kmh 30.08 in1018.6 mb - 0.00 in0.0 mm 0.00 in0.0 mm
11:15 AM 86.8°F30.4°C 73.6°F23.1°C 65% 1.5 mph NE2.4 kmh NE 3.0 mph4.8 kmh 30.08 in1018.6 mb - 0.00 in0.0 mm 0.00 in0.0 mm
11:30 AM 87.3°F30.7°C 72.2°F22.3°C 61% 2.0 mph S3.2 kmh S 3.0 mph4.8 kmh 30.08 in1018.6 mb - 0.00 in0.0 mm 0.00 in0.0 mm
11:45 AM 87.5°F30.8°C 71.9°F22.2°C 60% 1.4 mph ESE2.3 kmh ESE 2.0 mph3.2 kmh 30.07 in1018.3 mb - 0.00 in0.0 mm 0.00 in0.0 mm
12:00 PM 87.7°F30.9°C 72.1°F22.3°C 60% 0.5 mph ESE0.8 kmh ESE 2.0 mph3.2 kmh 30.07 in1018.3 mb - 0.00 in0.0 mm 0.00 in0.0 mm
12:15 PM 87.9°F31.1°C 72.3°F22.4°C 60% 0.2 mph SSW0.3 kmh SSW 1.0 mph1.6 kmh 30.07 in1018.3 mb - 0.00 in0.0 mm 0.00 in0.0 mm
12:30 PM 88.3°F31.3°C 71.1°F21.7°C 57% 0.4 mph SSE0.6 kmh SSE 1.0 mph1.6 kmh 30.07 in1018.3 mb - 0.00 in0.0 mm 0.00 in0.0 mm
12:45 PM 88.1°F31.2°C 71.5°F21.9°C 58% 1.2 mph SW1.9 kmh SW 2.0 mph3.2 kmh 30.06 in1017.9 mb - 0.00 in0.0 mm 0.00 in0.0 mm
01:00 PM 87.7°F30.9°C 74.0°F23.3°C 64% 1.3 mph S2.1 kmh S 3.0 mph4.8 kmh 30.06 in1017.9 mb - 0.00 in0.0 mm 0.00 in0.0 mm
01:15 PM 87.6°F30.9°C 71.5°F21.9°C 59% Calm Calm -- 30.05 in1017.6 mb - 0.00 in0.0 mm 0.00 in0.0 mm
01:30 PM 88.3°F31.3°C 71.6°F22.0°C 58% 2.0 mph SSW3.2 kmh SSW 4.0 mph6.4 kmh 30.04 in1017.3 mb - 0.00 in0.0 mm 0.00 in0.0 mm
01:45 PM 88.6°F31.4°C 71.9°F22.2°C 58% 0.5 mph SW0.8 kmh SW 2.0 mph3.2 kmh 30.05 in1017.6 mb - 0.00 in0.0 mm 0.00 in0.0 mm
02:00 PM 88.2°F31.2°C 72.6°F22.6°C 60% 0.7 mph SW1.1 kmh SW 1.0 mph1.6 kmh 30.04 in1017.3 mb - 0.00 in0.0 mm 0.00 in0.0 mm
02:15 PM 88.3°F31.3°C 75.0°F23.9°C 65% 0.8 mph SE1.3 kmh SE 3.0 mph4.8 kmh 30.04 in1017.3 mb - 0.00 in0.0 mm 0.00 in0.0 mm
02:30 PM 88.4°F31.3°C 75.6°F24.2°C 66% 1.1 mph SE1.8 kmh SE 2.0 mph3.2 kmh 30.04 in1017.3 mb - 0.00 in0.0 mm 0.00 in0.0 mm
02:45 PM 87.8°F31.0°C 75.5°F24.2°C 67% 0.4 mph SE0.6 kmh SE 2.0 mph3.2 kmh 30.03 in1016.9 mb - 0.00 in0.0 mm 0.00 in0.0 mm
03:00 PM 87.7°F30.9°C 76.3°F24.6°C 69% Calm Calm -- 30.03 in1016.9 mb - 0.00 in0.0 mm 0.00 in0.0 mm
03:15 PM 87.5°F30.8°C 74.7°F23.7°C 66% 0.3 mph ESE0.5 kmh ESE 2.0 mph3.2 kmh 30.03 in1016.9 mb - 0.00 in0.0 mm 0.00 in0.0 mm
03:30 PM 87.2°F30.7°C 75.8°F24.3°C 69% Calm Calm -- 30.04 in1017.3 mb - 0.00 in0.0 mm 0.00 in0.0 mm
03:45 PM 86.6°F30.3°C 76.5°F24.7°C 72% 1.5 mph ESE2.4 kmh ESE 1.0 mph1.6 kmh 30.03 in1016.9 mb - 0.00 in0.0 mm 0.00 in0.0 mm
04:00 PM 85.4°F29.7°C 76.2°F24.6°C 74% Calm Calm -- 30.03 in1016.9 mb - 0.00 in0.0 mm 0.00 in0.0 mm
04:15 PM 85.2°F29.6°C 77.6°F25.3°C 78% Calm Calm -- 30.03 in1016.9 mb - 0.00 in0.0 mm 0.00 in0.0 mm
04:30 PM 85.0°F29.4°C 77.4°F25.2°C 78% Calm Calm -- 30.03 in1016.9 mb - 0.00 in0.0 mm 0.00 in0.0 mm
04:45 PM 85.0°F29.4°C 77.4°F25.2°C 78% 1.3 mph S2.1 kmh S 3.0 mph4.8 kmh 30.04 in1017.3 mb - 0.00 in0.0 mm 0.00 in0.0 mm
05:00 PM 84.8°F29.3°C 75.6°F24.2°C 74% Calm Calm -- 30.04 in1017.3 mb - 0.00 in0.0 mm 0.00 in0.0 mm
05:15 PM 84.0°F28.9°C 75.2°F24.0°C 75% Calm Calm -- 30.03 in1016.9 mb - 0.00 in0.0 mm 0.00 in0.0 mm
05:30 PM 82.9°F28.3°C 75.3°F24.1°C 78% Calm Calm -- 30.03 in1016.9 mb - 0.00 in0.0 mm 0.00 in0.0 mm
05:45 PM 82.0°F27.8°C 74.8°F23.8°C 79% Calm Calm -- 30.02 in1016.6 mb - 0.00 in0.0 mm 0.00 in0.0 mm
06:00 PM 80.9°F27.2°C 74.2°F23.4°C 80% Calm Calm -- 30.03 in1016.9 mb - 0.00 in0.0 mm 0.00 in0.0 mm
06:15 PM 79.9°F26.6°C 73.2°F22.9°C 80% Calm Calm -- 30.03 in1016.9 mb - 0.00 in0.0 mm 0.00 in0.0 mm
06:30 PM 79.1°F26.2°C 73.1°F22.8°C 82% Calm Calm -- 30.03 in1016.9 mb - 0.00 in0.0 mm 0.00 in0.0 mm
06:45 PM 78.2°F25.7°C 73.0°F22.8°C 84% Calm Calm -- 30.03 in1016.9 mb - 0.00 in0.0 mm 0.00 in0.0 mm
07:00 PM 77.7°F25.4°C 73.2°F22.9°C 86% Calm Calm -- 30.03 in1016.9 mb - 0.00 in0.0 mm 0.00 in0.0 mm
07:15 PM 77.3°F25.2°C 73.1°F22.8°C 87% Calm Calm -- 30.03 in1016.9 mb - 0.00 in0.0 mm 0.00 in0.0 mm
07:30 PM 76.9°F24.9°C 73.1°F22.8°C 88% Calm Calm -- 30.03 in1016.9 mb - 0.00 in0.0 mm 0.00 in0.0 mm
07:45 PM 76.6°F24.8°C 72.8°F22.7°C 88% Calm Calm -- 30.03 in1016.9 mb - 0.00 in0.0 mm 0.00 in0.0 mm
08:00 PM 76.2°F24.6°C 72.7°F22.6°C 89% Calm Calm -- 30.04 in1017.3 mb - 0.00 in0.0 mm 0.00 in0.0 mm
08:15 PM 75.9°F24.4°C 72.7°F22.6°C 90% Calm Calm -- 30.04 in1017.3 mb - 0.00 in0.0 mm 0.00 in0.0 mm
08:30 PM 75.6°F24.2°C 72.4°F22.4°C 90% Calm Calm -- 30.03 in1016.9 mb - 0.00 in0.0 mm 0.00 in0.0 mm
08:45 PM 75.3°F24.1°C 72.5°F22.5°C 91% Calm Calm -- 30.03 in1016.9 mb - 0.00 in0.0 mm 0.00 in0.0 mm
09:00 PM 75.1°F23.9°C 72.3°F22.4°C 91% Calm Calm -- 30.03 in1016.9 mb - 0.00 in0.0 mm 0.00 in0.0 mm
09:15 PM 74.9°F23.8°C 72.4°F22.4°C 92% Calm Calm -- 30.03 in1016.9 mb - 0.00 in0.0 mm 0.00 in0.0 mm
09:30 PM 74.7°F23.7°C 72.2°F22.3°C 92% Calm Calm -- 30.03 in1016.9 mb - 0.00 in0.0 mm 0.00 in0.0 mm
09:45 PM 74.6°F23.7°C 72.1°F22.3°C 92% Calm Calm -- 30.03 in1016.9 mb - 0.00 in0.0 mm 0.00 in0.0 mm
10:00 PM 74.5°F23.6°C 72.3°F22.4°C 93% Calm Calm -- 30.03 in1016.9 mb - 0.00 in0.0 mm 0.00 in0.0 mm
10:15 PM 74.4°F23.6°C 72.3°F22.4°C 93% Calm Calm -- 30.03 in1016.9 mb - 0.00 in0.0 mm 0.00 in0.0 mm
10:30 PM 74.4°F23.6°C 72.2°F22.3°C 93% Calm Calm -- 30.03 in1016.9 mb - 0.00 in0.0 mm 0.00 in0.0 mm
10:45 PM 74.2°F23.4°C 72.0°F22.2°C 93% Calm Calm -- 30.03 in1016.9 mb - 0.00 in0.0 mm 0.00 in0.0 mm
11:00 PM 74.0°F23.3°C 71.8°F22.1°C 93% Calm Calm -- 30.02 in1016.6 mb - 0.00 in0.0 mm 0.00 in0.0 mm
11:15 PM 73.9°F23.3°C 71.7°F22.1°C 93% Calm Calm -- 30.02 in1016.6 mb - 0.00 in0.0 mm 0.00 in0.0 mm
11:30 PM 73.8°F23.2°C 71.6°F22.0°C 93% Calm Calm -- 30.02 in1016.6 mb - 0.00 in0.0 mm 0.00 in0.0 mm
11:45 PM 73.7°F23.2°C 71.9°F22.2°C 94% Calm Calm -- 30.02 in1016.6 mb - 0.00 in0.0 mm 0.00 in0.0 mm